createdAt,value
2018-11-12T00:00:13.880Z,9.23
2018-11-12T00:01:13.909Z,9.36
2018-11-12T00:02:13.922Z,9.31
2018-11-12T00:03:28.605Z,9.33
2018-11-12T00:04:13.953Z,9.38
2018-11-12T00:05:13.997Z,9.35
2018-11-12T00:06:14.008Z,9.33
2018-11-12T00:07:14.201Z,9.39
2018-11-12T00:08:13.759Z,9.39
2018-11-12T00:09:13.777Z,9.32
2018-11-12T00:10:28.734Z,9.32
2018-11-12T00:11:28.730Z,9.29
2018-11-12T00:12:14.121Z,9.35
2018-11-12T00:13:14.237Z,9.36
2018-11-12T00:14:14.145Z,9.36
2018-11-12T00:15:13.889Z,9.4
2018-11-12T00:16:14.161Z,9.35
2018-11-12T00:17:14.203Z,9.35
2018-11-12T00:18:28.861Z,9.36
2018-11-12T00:19:14.244Z,9.38
2018-11-12T00:20:13.980Z,9.33
2018-11-12T00:21:14.282Z,9.39
2018-11-12T00:22:14.273Z,9.42
2018-11-12T00:23:14.309Z,9.42
2018-11-12T00:24:14.301Z,9.32
2018-11-12T00:25:14.094Z,9.39
2018-11-12T00:26:28.996Z,9.32
2018-11-12T00:27:14.378Z,9.42
2018-11-12T00:28:14.126Z,9.39
2018-11-12T00:29:14.437Z,9.33
2018-11-12T00:30:14.405Z,9.36
2018-11-12T00:31:14.454Z,9.39
2018-11-12T00:32:14.184Z,9.32
2018-11-12T00:33:14.477Z,9.35
2018-11-12T00:34:14.477Z,9.38
2018-11-12T00:36:14.543Z,9.39
2018-11-12T00:37:14.534Z,9.35
2018-11-12T00:38:14.564Z,9.32
2018-11-12T00:39:14.562Z,9.36
2018-11-12T00:41:14.343Z,9.29
2018-11-12T00:42:14.648Z,9.31
2018-11-12T00:43:14.406Z,9.43
2018-11-12T00:44:14.655Z,9.33
2018-11-12T00:45:14.441Z,9.38
2018-11-12T00:46:14.690Z,9.35
2018-11-12T00:47:14.736Z,9.48
2018-11-12T00:48:14.468Z,9.38
2018-11-12T00:50:29.173Z,9.35
2018-11-12T00:51:14.780Z,9.39
2018-11-12T00:52:14.822Z,9.35
2018-11-12T00:53:14.832Z,9.39
2018-11-12T00:54:14.847Z,9.48
2018-11-12T00:56:14.869Z,9.64
2018-11-12T00:57:14.891Z,9.6
2018-11-12T00:58:14.919Z,9.58
2018-11-12T00:59:14.688Z,9.57
2018-11-12T01:00:14.707Z,9.58
2018-11-12T01:01:14.957Z,9.6
2018-11-12T01:02:14.725Z,9.54
2018-11-12T01:03:14.733Z,9.46
2018-11-12T01:04:15.450Z,9.43
2018-11-12T01:05:15.029Z,9.4
2018-11-12T01:06:29.719Z,9.48
2018-11-12T01:07:15.097Z,9.46
2018-11-12T01:08:15.086Z,9.39
2018-11-12T01:09:14.853Z,9.39
2018-11-12T01:10:15.119Z,9.4
2018-11-12T01:11:15.162Z,9.46
2018-11-12T01:12:15.169Z,9.47
2018-11-12T01:13:15.196Z,9.48
2018-11-12T01:14:15.185Z,9.5
2018-11-12T01:15:15.236Z,9.5
2018-11-12T01:16:29.622Z,9.48
2018-11-12T01:17:29.639Z,9.5
2018-11-12T01:18:15.291Z,9.48
2018-11-12T01:19:15.024Z,9.51
2018-11-12T01:20:15.048Z,9.5
2018-11-12T01:21:15.340Z,9.47
2018-11-12T01:22:29.729Z,9.46
2018-11-12T01:23:15.375Z,9.47
2018-11-12T01:24:15.392Z,9.4
2018-11-12T01:25:15.414Z,9.4
2018-11-12T01:26:15.137Z,9.42
2018-11-12T01:27:15.420Z,9.43
2018-11-12T01:28:15.470Z,9.33
2018-11-12T01:29:15.495Z,9.47
2018-11-12T01:30:30.150Z,9.48
2018-11-12T01:31:15.486Z,9.46
2018-11-12T01:32:15.537Z,9.46
2018-11-12T01:33:30.181Z,9.33
2018-11-12T01:34:15.545Z,9.43
2018-11-12T01:35:15.579Z,9.38
2018-11-12T01:36:15.608Z,9.4
2018-11-12T01:37:15.366Z,9.32
2018-11-12T01:38:30.271Z,9.33
2018-11-12T01:39:15.394Z,9.39
2018-11-12T01:40:15.657Z,9.38
2018-11-12T01:41:15.435Z,9.31
2018-11-12T01:42:15.569Z,9.31
2018-11-12T01:43:15.743Z,9.36
2018-11-12T01:44:15.484Z,9.4
2018-11-12T01:45:15.497Z,9.36
2018-11-12T01:46:15.758Z,9.35
2018-11-12T01:47:15.803Z,9.35
2018-11-12T01:48:15.793Z,9.38
2018-11-12T01:49:15.829Z,9.38
2018-11-12T01:50:15.571Z,9.36
2018-11-12T01:51:15.351Z,9.39
2018-11-12T01:52:15.868Z,9.4
2018-11-12T01:53:30.557Z,9.36
2018-11-12T01:54:15.925Z,9.38
2018-11-12T01:55:15.940Z,9.35
2018-11-12T01:57:15.956Z,9.32
2018-11-12T01:58:16.000Z,9.38
2018-11-12T01:59:15.990Z,9.35
2018-11-12T02:00:16.037Z,9.42
2018-11-12T02:01:16.026Z,9.33
2018-11-12T02:02:30.722Z,9.38
2018-11-12T02:03:30.716Z,9.47
2018-11-12T02:04:16.076Z,9.33
2018-11-12T02:05:16.131Z,9.4
2018-11-12T02:06:16.117Z,9.38
2018-11-12T02:07:15.637Z,9.38
2018-11-12T02:08:16.148Z,9.35
2018-11-12T02:09:16.283Z,9.47
2018-11-12T02:10:16.196Z,9.33
2018-11-12T02:11:16.227Z,9.36
2018-11-12T02:12:16.222Z,9.38
2018-11-12T02:13:16.272Z,9.35
2018-11-12T02:14:30.963Z,9.32
2018-11-12T02:15:16.301Z,9.38
2018-11-12T02:16:16.060Z,9.42
2018-11-12T02:17:16.349Z,9.35
2018-11-12T02:18:16.070Z,9.39
2018-11-12T02:19:16.374Z,9.32
2018-11-12T02:20:16.108Z,9.39
2018-11-12T02:21:16.136Z,9.36
2018-11-12T02:22:16.395Z,9.36
2018-11-12T02:24:16.475Z,9.46
2018-11-12T02:25:31.157Z,9.42
2018-11-12T02:26:16.494Z,9.47
2018-11-12T02:27:16.245Z,9.39
2018-11-12T02:28:16.504Z,9.38
2018-11-12T02:29:16.390Z,9.33
2018-11-12T02:30:16.544Z,9.39
2018-11-12T02:31:31.241Z,9.38
2018-11-12T02:32:31.256Z,9.42
2018-11-12T02:33:16.535Z,9.39
2018-11-12T02:34:16.647Z,9.39
2018-11-12T02:35:16.633Z,9.4
2018-11-12T02:36:31.326Z,9.29
2018-11-12T02:37:16.671Z,9.29
2018-11-12T02:38:16.703Z,9.38
2018-11-12T02:39:16.713Z,9.35
2018-11-12T02:40:16.771Z,9.29
2018-11-12T02:41:31.138Z,9.39
2018-11-12T02:44:16.554Z,9.42
2018-11-12T02:45:16.824Z,9.36
2018-11-12T02:46:16.857Z,9.35
2018-11-12T02:47:16.850Z,9.33
2018-11-12T02:48:16.865Z,9.36
2018-11-12T02:49:16.890Z,9.29
2018-11-12T02:50:31.590Z,9.23
2018-11-12T02:51:16.945Z,9.26
2018-11-12T02:52:16.930Z,9.21
2018-11-12T02:53:16.985Z,9.21
2018-11-12T02:54:16.966Z,9.24
2018-11-12T02:55:17.113Z,9.14
2018-11-12T02:56:17.008Z,9.08
2018-11-12T02:57:31.977Z,9.02
2018-11-12T02:58:17.068Z,9.04
2018-11-12T02:59:16.793Z,9.05
2018-11-12T03:00:17.120Z,9.13
2018-11-12T03:01:16.605Z,9.13
2018-11-12T03:02:16.612Z,9.08
2018-11-12T03:03:17.126Z,9.05
2018-11-12T03:04:17.173Z,9.13
2018-11-12T03:05:17.178Z,9.01
2018-11-12T03:06:16.946Z,9.11
2018-11-12T03:07:17.262Z,8.98
2018-11-12T03:08:17.241Z,8.98
2018-11-12T03:09:17.265Z,8.96
2018-11-12T03:10:17.249Z,8.86
2018-11-12T03:11:17.267Z,8.89
2018-11-12T03:12:17.309Z,8.87
2018-11-12T03:14:17.355Z,8.83
2018-11-12T03:16:17.374Z,8.76
2018-11-12T03:18:32.058Z,8.73
2018-11-12T03:19:17.180Z,8.74
2018-11-12T03:20:17.422Z,8.63
2018-11-12T03:21:17.481Z,8.79
2018-11-12T03:22:17.484Z,8.71
2018-11-12T03:23:32.136Z,8.73
2018-11-12T03:24:17.519Z,8.73
2018-11-12T03:25:17.514Z,8.71
2018-11-12T03:27:17.562Z,8.73
2018-11-12T03:28:32.248Z,8.7
2018-11-12T03:29:17.614Z,8.74
2018-11-12T03:30:17.610Z,8.8
2018-11-12T03:31:17.393Z,8.84
2018-11-12T03:32:17.649Z,8.81
2018-11-12T03:33:17.398Z,8.83
2018-11-12T03:34:17.695Z,8.87
2018-11-12T03:35:17.474Z,8.89
2018-11-12T03:36:17.706Z,8.79
2018-11-12T03:37:17.511Z,8.74
2018-11-12T03:38:17.238Z,8.79
2018-11-12T03:39:17.801Z,8.63
2018-11-12T03:40:17.518Z,8.77
2018-11-12T03:41:17.820Z,8.8
2018-11-12T03:42:17.813Z,8.74
2018-11-12T03:43:17.860Z,8.7
2018-11-12T03:44:17.328Z,8.68
2018-11-12T03:46:32.394Z,8.55
2018-11-12T03:47:17.904Z,8.66
2018-11-12T03:48:17.933Z,8.66
2018-11-12T03:49:17.937Z,8.55
2018-11-12T03:50:17.456Z,8.55
2018-11-12T03:51:17.979Z,8.53
2018-11-12T03:52:18.025Z,8.4
2018-11-12T03:53:18.009Z,8.56
2018-11-12T03:54:18.052Z,8.52
2018-11-12T03:55:18.050Z,8.66
2018-11-12T03:56:17.803Z,8.62
2018-11-12T03:57:17.830Z,8.55
2018-11-12T03:58:18.135Z,8.52
2018-11-12T03:59:18.140Z,8.5
2018-11-12T04:00:32.928Z,8.43
2018-11-12T04:01:18.176Z,8.5
2018-11-12T04:02:18.166Z,8.44
2018-11-12T04:03:18.191Z,8.48
2018-11-12T04:04:18.223Z,8.41
2018-11-12T04:05:18.213Z,8.53
2018-11-12T04:06:18.235Z,8.48
2018-11-12T04:07:18.260Z,8.55
2018-11-12T04:08:18.296Z,8.56
2018-11-12T04:09:18.310Z,8.61
2018-11-12T04:10:18.048Z,8.65
2018-11-12T04:11:18.333Z,8.62
2018-11-12T04:12:18.335Z,8.68
2018-11-12T04:13:18.384Z,8.71
2018-11-12T04:14:18.390Z,8.74
2018-11-12T04:15:18.413Z,8.76
2018-11-12T04:16:33.082Z,8.84
2018-11-12T04:17:18.420Z,8.77
2018-11-12T04:18:18.207Z,8.86
2018-11-12T04:19:18.482Z,8.83
2018-11-12T04:20:18.516Z,8.87
2018-11-12T04:21:18.491Z,8.83
2018-11-12T04:22:33.170Z,8.81
2018-11-12T04:23:18.561Z,8.81
2018-11-12T04:24:18.540Z,8.86
2018-11-12T04:25:18.606Z,8.92
2018-11-12T04:26:33.252Z,8.94
2018-11-12T04:27:33.260Z,8.98
2018-11-12T04:28:18.637Z,8.89
2018-11-12T04:29:18.666Z,8.91
2018-11-12T04:30:18.647Z,8.92
2018-11-12T04:31:18.698Z,8.95
2018-11-12T04:32:33.344Z,8.87
2018-11-12T04:34:18.758Z,8.84
2018-11-12T04:35:18.771Z,8.84
2018-11-12T04:36:18.793Z,8.89
2018-11-12T04:37:18.786Z,8.84
2018-11-12T04:38:18.804Z,8.87
2018-11-12T04:39:18.809Z,8.84
2018-11-12T04:40:18.853Z,8.86
2018-11-12T04:41:18.846Z,8.94
2018-11-12T04:42:18.902Z,8.81
2018-11-12T04:43:18.881Z,8.92
2018-11-12T04:44:18.923Z,8.8
2018-11-12T04:45:18.919Z,8.86
2018-11-12T04:46:18.685Z,8.89
2018-11-12T04:47:18.688Z,8.77
2018-11-12T04:48:33.642Z,8.81
2018-11-12T04:49:19.012Z,8.74
2018-11-12T04:50:19.002Z,8.68
2018-11-12T04:51:19.047Z,8.73
2018-11-12T04:52:18.777Z,8.73
2018-11-12T04:53:19.081Z,8.66
2018-11-12T04:54:33.826Z,8.59
2018-11-12T04:55:19.473Z,8.56
2018-11-12T04:56:33.762Z,8.59
2018-11-12T04:57:19.147Z,8.65
2018-11-12T04:58:19.153Z,8.66
2018-11-12T04:59:19.229Z,8.77
2018-11-12T05:00:19.190Z,8.79
2018-11-12T05:01:18.956Z,8.8
2018-11-12T05:02:19.215Z,8.89
2018-11-12T05:04:19.028Z,8.74
2018-11-12T05:05:19.022Z,8.77
2018-11-12T05:06:19.049Z,8.73
2018-11-12T05:07:19.421Z,8.68
2018-11-12T05:08:19.345Z,8.65
2018-11-12T05:09:19.357Z,8.63
2018-11-12T05:10:34.031Z,8.7
2018-11-12T05:11:34.027Z,8.55
2018-11-12T05:12:19.414Z,8.61
2018-11-12T05:13:19.437Z,8.55
2018-11-12T05:14:19.420Z,8.5
2018-11-12T05:15:19.471Z,8.45
2018-11-12T05:16:19.455Z,8.45
2018-11-12T05:17:19.503Z,8.45
2018-11-12T05:18:19.500Z,8.4
2018-11-12T05:19:19.276Z,8.47
2018-11-12T05:20:19.275Z,8.33
2018-11-12T05:21:19.579Z,8.36
2018-11-12T05:22:19.616Z,8.47
2018-11-12T05:23:19.610Z,8.55
2018-11-12T05:24:19.608Z,8.53
2018-11-12T05:25:19.613Z,8.52
2018-11-12T05:26:19.625Z,8.53
2018-11-12T05:27:19.717Z,8.53
2018-11-12T05:28:19.687Z,8.45
2018-11-12T05:29:19.450Z,8.44
2018-11-12T05:30:19.704Z,8.56
2018-11-12T05:31:19.742Z,8.61
2018-11-12T05:32:19.479Z,8.58
2018-11-12T05:33:19.770Z,8.47
2018-11-12T05:34:19.888Z,8.53
2018-11-12T05:35:34.464Z,8.56
2018-11-12T05:36:19.833Z,8.45
2018-11-12T05:37:19.573Z,8.48
2018-11-12T05:38:20.208Z,8.53
2018-11-12T05:39:19.858Z,8.47
2018-11-12T05:40:19.911Z,8.48
2018-11-12T05:41:19.892Z,8.38
2018-11-12T05:42:19.945Z,8.47
2018-11-12T05:43:19.939Z,8.5
2018-11-12T05:44:19.965Z,8.48
2018-11-12T05:45:34.619Z,8.52
2018-11-12T05:46:34.379Z,8.47
2018-11-12T05:47:20.034Z,8.5
2018-11-12T05:48:19.757Z,8.58
2018-11-12T05:49:20.061Z,8.56
2018-11-12T05:50:19.810Z,8.56
2018-11-12T05:51:34.860Z,8.58
2018-11-12T05:53:20.137Z,8.61
2018-11-12T05:54:20.117Z,8.63
2018-11-12T05:55:19.913Z,8.58
2018-11-12T05:56:20.152Z,8.58
2018-11-12T05:57:19.921Z,8.55
2018-11-12T05:58:20.201Z,8.62
2018-11-12T05:59:19.973Z,8.58
2018-11-12T06:00:20.256Z,8.5
2018-11-12T06:01:20.251Z,8.55
2018-11-12T06:02:20.009Z,8.44
2018-11-12T06:03:20.306Z,8.47
2018-11-12T06:05:20.512Z,8.52
2018-11-12T06:06:20.324Z,8.61
2018-11-12T06:07:35.008Z,8.62
2018-11-12T06:08:20.381Z,8.65
2018-11-12T06:09:20.149Z,8.55
2018-11-12T06:10:20.432Z,8.62
2018-11-12T06:11:20.160Z,8.71
2018-11-12T06:12:20.460Z,8.66
2018-11-12T06:13:20.450Z,8.68
2018-11-12T06:14:20.497Z,8.74
2018-11-12T06:15:20.490Z,8.74
2018-11-12T06:16:20.529Z,8.77
2018-11-12T06:17:20.536Z,8.81
2018-11-12T06:18:35.209Z,8.8
2018-11-12T06:19:20.574Z,8.8
2018-11-12T06:20:20.602Z,8.8
2018-11-12T06:21:20.590Z,8.74
2018-11-12T06:22:20.367Z,8.79
2018-11-12T06:23:35.025Z,8.77
2018-11-12T06:24:20.667Z,8.89
2018-11-12T06:25:35.332Z,8.86
2018-11-12T06:26:20.447Z,8.84
2018-11-12T06:27:20.725Z,8.87
2018-11-12T06:28:20.718Z,8.89
2018-11-12T06:29:20.742Z,8.91
2018-11-12T06:30:20.743Z,8.91
2018-11-12T06:31:21.242Z,8.87
2018-11-12T06:32:20.787Z,8.92
2018-11-12T06:33:20.566Z,8.89
2018-11-12T06:34:20.818Z,8.96
2018-11-12T06:35:20.603Z,8.94
2018-11-12T06:36:20.852Z,8.94
2018-11-12T06:37:20.887Z,9.04
2018-11-12T06:38:35.549Z,8.92
2018-11-12T06:39:20.935Z,8.95
2018-11-12T06:40:20.696Z,8.99
2018-11-12T06:41:20.937Z,8.99
2018-11-12T06:42:21.004Z,8.94
2018-11-12T06:43:21.455Z,9.04
2018-11-12T06:44:21.023Z,8.96
2018-11-12T06:45:35.673Z,8.94
2018-11-12T06:46:21.040Z,8.95
2018-11-12T06:47:35.735Z,8.99
2018-11-12T06:48:21.091Z,8.96
2018-11-12T06:49:21.079Z,8.94
2018-11-12T06:50:35.822Z,8.99
2018-11-12T06:51:21.139Z,8.98
2018-11-12T06:52:21.149Z,9.05
2018-11-12T06:53:21.025Z,9.05
2018-11-12T06:54:21.168Z,9.08
2018-11-12T06:55:21.217Z,9.11
2018-11-12T06:56:21.219Z,9.02
2018-11-12T06:57:21.253Z,9.14
2018-11-12T06:58:21.254Z,9.17
2018-11-12T06:59:21.276Z,9.17
2018-11-12T07:00:21.295Z,9.28
2018-11-12T07:01:20.775Z,9.26
2018-11-12T07:02:21.340Z,9.33
2018-11-12T07:03:21.068Z,9.2
2018-11-12T07:04:21.376Z,9.24
2018-11-12T07:05:21.396Z,9.21
2018-11-12T07:06:21.539Z,9.26
2018-11-12T07:07:21.150Z,9.38
2018-11-12T07:08:21.415Z,9.29
2018-11-12T07:09:21.466Z,9.29
2018-11-12T07:10:36.117Z,9.38
2018-11-12T07:11:21.237Z,9.39
2018-11-12T07:12:21.494Z,9.33
2018-11-12T07:13:21.489Z,9.33
2018-11-12T07:14:21.552Z,9.32
2018-11-12T07:15:21.577Z,9.36
2018-11-12T07:16:21.301Z,9.39
2018-11-12T07:17:21.602Z,9.39
2018-11-12T07:18:21.595Z,9.5
2018-11-12T07:19:21.654Z,9.43
2018-11-12T07:20:36.288Z,9.46
2018-11-12T07:21:36.325Z,9.47
2018-11-12T07:22:21.440Z,9.54
2018-11-12T07:23:21.542Z,9.58
2018-11-12T07:24:21.725Z,9.68
2018-11-12T07:25:22.082Z,9.72
2018-11-12T07:26:36.157Z,9.87
2018-11-12T07:27:21.756Z,9.87
2018-11-12T07:28:21.904Z,9.97
2018-11-12T07:29:21.811Z,9.97
2018-11-12T07:30:21.324Z,10.08
2018-11-12T07:32:21.854Z,10.22
2018-11-12T07:34:21.887Z,10.15
2018-11-12T07:35:36.585Z,10.18
2018-11-12T07:36:21.949Z,10.27
2018-11-12T07:37:21.958Z,10.27
2018-11-12T07:38:36.632Z,10.25
2018-11-12T07:39:21.765Z,10.27
2018-11-12T07:40:21.743Z,10.22
2018-11-12T07:41:22.056Z,10.26
2018-11-12T07:42:36.437Z,10.25
2018-11-12T07:43:22.135Z,10.27
2018-11-12T07:44:22.088Z,10.3
2018-11-12T07:46:22.143Z,10.38
2018-11-12T07:47:21.881Z,10.4
2018-11-12T07:49:22.175Z,10.4
2018-11-12T07:50:22.224Z,10.44
2018-11-12T07:51:22.517Z,10.51
2018-11-12T07:52:22.257Z,10.55
2018-11-12T07:53:22.016Z,10.53
2018-11-12T07:54:22.382Z,10.6
2018-11-12T07:55:22.303Z,10.67
2018-11-12T07:56:22.679Z,10.73
2018-11-12T07:57:22.355Z,10.64
2018-11-12T07:58:36.998Z,10.74
2018-11-12T07:59:36.773Z,10.79
2018-11-12T08:01:22.396Z,10.74
2018-11-12T08:02:22.453Z,10.74
2018-11-12T08:03:22.243Z,10.82
2018-11-12T08:04:22.470Z,10.86
2018-11-12T08:05:22.478Z,10.88
2018-11-12T08:06:22.261Z,10.86
2018-11-12T08:07:22.518Z,10.92
2018-11-12T08:08:22.554Z,10.89
2018-11-12T08:09:22.992Z,11
2018-11-12T08:11:22.599Z,11.07
2018-11-12T08:12:22.644Z,11.04
2018-11-12T08:13:37.282Z,11.11
2018-11-12T08:14:22.751Z,11.14
2018-11-12T08:15:22.694Z,11.15
2018-11-12T08:16:22.445Z,11.19
2018-11-12T08:18:22.734Z,11.25
2018-11-12T08:19:22.793Z,11.25
2018-11-12T08:20:22.500Z,11.32
2018-11-12T08:21:22.780Z,11.29
2018-11-12T08:22:37.475Z,11.27
2018-11-12T08:23:22.819Z,11.24
2018-11-12T08:24:23.705Z,11.29
2018-11-12T08:25:22.859Z,11.39
2018-11-12T08:26:22.912Z,11.32
2018-11-12T08:27:23.010Z,11.24
2018-11-12T08:28:22.935Z,11.33
2018-11-12T08:29:22.932Z,11.37
2018-11-12T08:30:23.304Z,11.36
2018-11-12T08:31:23.005Z,11.32
2018-11-12T08:32:23.016Z,11.37
2018-11-12T08:33:23.011Z,11.35
2018-11-12T08:34:23.059Z,11.44
2018-11-12T08:35:23.047Z,11.33
2018-11-12T08:36:22.906Z,11.36
2018-11-12T08:37:22.829Z,11.33
2018-11-12T08:38:23.133Z,11.25
2018-11-12T08:39:23.887Z,11.33
2018-11-12T08:40:23.351Z,11.35
2018-11-12T08:41:23.227Z,11.37
2018-11-12T08:42:23.212Z,11.4
2018-11-12T08:43:23.205Z,11.36
2018-11-12T08:44:23.222Z,11.35
2018-11-12T08:45:37.913Z,11.22
2018-11-12T08:46:23.254Z,11.37
2018-11-12T08:47:23.304Z,11.32
2018-11-12T08:48:23.433Z,11.35
2018-11-12T08:49:23.769Z,11.43
2018-11-12T08:50:38.002Z,11.32
2018-11-12T08:51:23.356Z,11.32
2018-11-12T08:52:23.852Z,11.33
2018-11-12T08:53:23.142Z,11.43
2018-11-12T08:54:23.831Z,11.39
2018-11-12T08:55:23.327Z,11.46
2018-11-12T08:56:23.472Z,11.49
2018-11-12T08:57:23.211Z,11.46
2018-11-12T08:58:24.720Z,11.47
2018-11-12T08:59:23.704Z,11.47
2018-11-12T09:00:23.285Z,11.44
2018-11-12T09:01:38.309Z,11.46
2018-11-12T09:02:23.579Z,11.46
2018-11-12T09:03:23.606Z,11.47
2018-11-12T09:04:23.628Z,11.43
2018-11-12T09:05:23.365Z,11.52
2018-11-12T09:06:23.664Z,11.6
2018-11-12T09:07:38.525Z,11.57
2018-11-12T09:08:23.697Z,11.52
2018-11-12T09:10:24.003Z,11.65
2018-11-12T09:11:23.767Z,11.69
2018-11-12T09:12:23.759Z,11.73
2018-11-12T09:13:23.782Z,11.65
2018-11-12T09:14:23.532Z,11.75
2018-11-12T09:15:23.847Z,11.67
2018-11-12T09:16:23.829Z,11.82
2018-11-12T09:17:38.524Z,11.73
2018-11-12T09:18:23.883Z,11.91
2018-11-12T09:19:23.391Z,11.83
2018-11-12T09:20:23.904Z,11.83
2018-11-12T09:22:23.969Z,11.96
2018-11-12T09:23:23.978Z,11.99
2018-11-12T09:24:24.483Z,12.04
2018-11-12T09:25:38.660Z,12.16
2018-11-12T09:26:38.700Z,12.2
2018-11-12T09:27:38.697Z,12.16
2018-11-12T09:28:24.096Z,12.24
2018-11-12T09:29:24.058Z,12.29
2018-11-12T09:30:23.856Z,12.37
2018-11-12T09:31:28.371Z,12.38
2018-11-12T09:32:24.170Z,12.35
2018-11-12T09:33:38.834Z,12.32
2018-11-12T09:34:24.208Z,12.45
2018-11-12T09:35:24.096Z,12.45
2018-11-12T09:36:23.986Z,12.46
2018-11-12T09:37:24.413Z,12.53
2018-11-12T09:38:23.764Z,12.45
2018-11-12T09:39:24.304Z,12.5
2018-11-12T09:40:38.954Z,12.54
2018-11-12T09:41:24.633Z,12.53
2018-11-12T09:42:24.585Z,12.57
2018-11-12T09:43:24.409Z,12.68
2018-11-12T09:44:24.568Z,12.67
2018-11-12T09:45:24.424Z,12.65
2018-11-12T09:46:24.440Z,12.65
2018-11-12T09:48:38.863Z,12.68
2018-11-12T09:49:24.489Z,12.75
2018-11-12T09:50:24.492Z,12.85
2018-11-12T09:51:24.539Z,12.83
2018-11-12T09:52:24.565Z,12.93
2018-11-12T09:53:24.593Z,12.92
2018-11-12T09:54:25.412Z,12.96
2018-11-12T09:55:24.626Z,13
2018-11-12T09:56:24.712Z,12.95
2018-11-12T09:57:24.668Z,12.92
2018-11-12T09:58:24.400Z,12.92
2018-11-12T09:59:24.954Z,13.05
2018-11-12T10:00:25.594Z,13.07
2018-11-12T10:01:25.902Z,13.05
2018-11-12T10:02:27.941Z,13.15
2018-11-12T10:03:27.758Z,13.17
2018-11-12T10:04:29.800Z,13.22
2018-11-12T10:05:31.030Z,13.25
2018-11-12T10:06:30.970Z,13.38
2018-11-12T10:07:31.709Z,13.33
2018-11-12T10:08:44.500Z,13.45
2018-11-12T10:09:29.137Z,13.55
2018-11-12T10:10:26.203Z,13.51
2018-11-12T10:12:35.658Z,13.63
2018-11-12T10:13:33.573Z,13.63
2018-11-12T10:14:36.827Z,13.7
2018-11-12T10:15:36.862Z,13.7
2018-11-12T10:16:35.821Z,13.75
2018-11-12T10:17:46.603Z,13.79
2018-11-12T10:18:25.060Z,13.91
2018-11-12T10:19:24.845Z,13.71
2018-11-12T10:20:39.760Z,13.78
2018-11-12T10:21:25.148Z,13.73
2018-11-12T10:22:25.140Z,13.77
2018-11-12T10:23:25.196Z,13.78
2018-11-12T10:24:25.184Z,13.89
2018-11-12T10:25:25.234Z,13.87
2018-11-12T10:26:24.980Z,13.91
2018-11-12T10:27:25.285Z,14
2018-11-12T10:28:25.258Z,13.91
2018-11-12T10:29:25.045Z,13.96
2018-11-12T10:30:25.351Z,14.03
2018-11-12T10:31:25.361Z,14.06
2018-11-12T10:32:40.024Z,14.12
2018-11-12T10:33:25.373Z,14.18
2018-11-12T10:34:25.409Z,14.2
2018-11-12T10:36:40.097Z,14.24
2018-11-12T10:37:25.462Z,14.18
2018-11-12T10:40:25.263Z,14.17
2018-11-12T10:41:40.263Z,14.2
2018-11-12T10:42:25.295Z,14.18
2018-11-12T10:43:25.582Z,14.21
2018-11-12T10:44:25.348Z,14.17
2018-11-12T10:45:25.645Z,14.15
2018-11-12T10:46:25.665Z,14.14
2018-11-12T10:47:25.662Z,14.2
2018-11-12T10:48:25.890Z,14.18
2018-11-12T10:49:25.728Z,14.24
2018-11-12T10:50:25.732Z,14.22
2018-11-12T10:51:26.011Z,14.29
2018-11-12T10:53:25.550Z,14.27
2018-11-12T10:54:26.620Z,14.33
2018-11-12T10:55:41.115Z,14.33
2018-11-12T10:56:25.973Z,14.39
2018-11-12T10:57:25.861Z,14.45
2018-11-12T10:58:26.173Z,14.42
2018-11-12T10:59:25.652Z,14.36
2018-11-12T11:00:26.031Z,14.37
2018-11-12T11:01:25.959Z,14.43
2018-11-12T11:02:40.648Z,14.37
2018-11-12T11:03:26.026Z,14.35
2018-11-12T11:04:26.010Z,14.28
2018-11-12T11:05:25.791Z,14.21
2018-11-12T11:06:26.049Z,14.2
2018-11-12T11:07:26.101Z,14.2
2018-11-12T11:08:40.748Z,14.18
2018-11-12T11:09:40.527Z,14.15
2018-11-12T11:10:26.163Z,14.14
2018-11-12T11:11:26.165Z,14.18
2018-11-12T11:12:25.926Z,14.09
2018-11-12T11:13:26.202Z,14.1
2018-11-12T11:14:26.252Z,14.17
2018-11-12T11:15:26.405Z,14.17
2018-11-12T11:16:26.284Z,14.18
2018-11-12T11:17:26.024Z,14.22
2018-11-12T11:18:40.971Z,14.21
2018-11-12T11:20:26.380Z,14.17
2018-11-12T11:21:26.668Z,14.21
2018-11-12T11:22:26.411Z,14.28
2018-11-12T11:23:41.061Z,14.28
2018-11-12T11:24:26.432Z,14.27
2018-11-12T11:26:26.212Z,14.27
2018-11-12T11:27:26.517Z,14.25
2018-11-12T11:28:26.509Z,14.2
2018-11-12T11:29:26.304Z,14
2018-11-12T11:30:26.035Z,14.04
2018-11-12T11:31:26.325Z,14.03
2018-11-12T11:32:26.623Z,13.95
2018-11-12T11:33:26.359Z,13.88
2018-11-12T11:34:26.631Z,13.75
2018-11-12T11:35:26.679Z,13.75
2018-11-12T11:36:26.713Z,13.77
2018-11-12T11:37:26.723Z,13.73
2018-11-12T11:38:26.713Z,13.91
2018-11-12T11:39:26.763Z,13.77
2018-11-12T11:40:27.276Z,13.71
2018-11-12T11:41:26.796Z,13.79
2018-11-12T11:42:26.850Z,13.87
2018-11-12T11:43:26.846Z,13.88
2018-11-12T11:44:26.582Z,13.89
2018-11-12T11:45:26.879Z,13.87
2018-11-12T11:46:26.893Z,13.85
2018-11-12T11:48:26.923Z,13.77
2018-11-12T11:49:26.443Z,13.77
2018-11-12T11:50:41.873Z,13.71
2018-11-12T11:51:26.993Z,13.66
2018-11-12T11:52:27.012Z,13.77
2018-11-12T11:53:27.063Z,13.79
2018-11-12T11:54:27.180Z,13.79
2018-11-12T11:55:41.823Z,13.73
2018-11-12T11:56:41.999Z,13.79
2018-11-12T11:57:27.486Z,13.66
2018-11-12T11:58:26.869Z,13.62
2018-11-12T12:00:27.182Z,13.67
2018-11-12T12:01:27.220Z,13.7
2018-11-12T12:02:27.171Z,13.77
2018-11-12T12:03:27.259Z,13.88
2018-11-12T12:04:27.247Z,13.97
2018-11-12T12:05:27.296Z,13.91
2018-11-12T12:06:27.027Z,13.89
2018-11-12T12:07:27.341Z,13.97
2018-11-12T12:08:27.358Z,13.91
2018-11-12T12:09:27.884Z,13.96
2018-11-12T12:10:27.127Z,13.99
2018-11-12T12:11:42.053Z,14.04
2018-11-12T12:12:27.422Z,14.06
2018-11-12T12:13:27.418Z,14.14
2018-11-12T12:15:27.471Z,14.33
2018-11-12T12:16:27.520Z,14.4
2018-11-12T12:17:27.530Z,14.47
2018-11-12T12:18:27.682Z,14.47
2018-11-12T12:19:27.580Z,14.65
2018-11-12T12:20:27.592Z,14.51
2018-11-12T12:21:27.603Z,14.62
2018-11-12T12:22:27.616Z,14.73
2018-11-12T12:23:27.665Z,14.75
2018-11-12T12:24:28.083Z,14.73
2018-11-12T12:25:27.678Z,14.75
2018-11-12T12:26:27.701Z,14.89
2018-11-12T12:27:42.135Z,14.99
2018-11-12T12:28:27.745Z,15.11
2018-11-12T12:29:27.764Z,15.2
2018-11-12T12:30:27.797Z,15.23
2018-11-12T12:31:27.836Z,15.27
2018-11-12T12:32:27.861Z,15.29
2018-11-12T12:33:42.508Z,15.2
2018-11-12T12:34:27.637Z,15.06
2018-11-12T12:35:42.595Z,15.09
2018-11-12T12:36:28.158Z,15.01
2018-11-12T12:37:27.990Z,15.01
2018-11-12T12:38:27.980Z,14.92
2018-11-12T12:39:27.971Z,14.96
2018-11-12T12:40:28.019Z,14.84
2018-11-12T12:41:28.033Z,14.81
2018-11-12T12:42:27.804Z,14.84
2018-11-12T12:43:42.716Z,14.86
2018-11-12T12:44:28.583Z,14.77
2018-11-12T12:45:28.832Z,14.89
2018-11-12T12:46:28.142Z,14.83
2018-11-12T12:47:27.899Z,14.86
2018-11-12T12:48:28.199Z,14.95
2018-11-12T12:49:28.319Z,14.95
2018-11-12T12:50:28.214Z,14.88
2018-11-12T12:51:28.498Z,14.92
2018-11-12T12:52:28.247Z,15.03
2018-11-12T12:53:28.296Z,15.01
2018-11-12T12:54:28.290Z,14.98
2018-11-12T12:55:28.692Z,14.96
2018-11-12T12:56:43.114Z,15.13
2018-11-12T12:57:28.398Z,15.17
2018-11-12T12:58:42.776Z,15.27
2018-11-12T12:59:28.397Z,15.23
2018-11-12T13:00:28.456Z,15.29
2018-11-12T13:01:28.371Z,15.2
2018-11-12T13:02:28.730Z,15.27
2018-11-12T13:03:28.234Z,15.23
2018-11-12T13:04:28.256Z,15.27
2018-11-12T13:05:43.184Z,15.16
2018-11-12T13:06:28.707Z,15.27
2018-11-12T13:07:28.900Z,15.21
2018-11-12T13:08:28.612Z,15.21
2018-11-12T13:09:28.349Z,15.09
2018-11-12T13:10:28.649Z,15.11
2018-11-12T13:11:28.650Z,15.06
2018-11-12T13:12:28.707Z,14.99
2018-11-12T13:13:28.717Z,15.01
2018-11-12T13:14:28.651Z,14.92
2018-11-12T13:15:28.472Z,14.88
2018-11-12T13:16:28.755Z,14.94
2018-11-12T13:17:28.803Z,14.88
2018-11-12T13:18:28.806Z,15.01
2018-11-12T13:19:28.830Z,15.02
2018-11-12T13:21:29.266Z,15.14
2018-11-12T13:22:28.937Z,15.07
2018-11-12T13:23:28.933Z,15.1
2018-11-12T13:25:43.618Z,14.94
2018-11-12T13:26:28.705Z,15.06
2018-11-12T13:27:29.017Z,14.94
2018-11-12T13:28:29.011Z,15.02
2018-11-12T13:30:43.466Z,14.94
2018-11-12T13:32:29.123Z,14.92
2018-11-12T13:33:29.132Z,14.86
2018-11-12T13:34:28.877Z,14.8
2018-11-12T13:35:29.194Z,14.78
2018-11-12T13:36:29.178Z,14.75
2018-11-12T13:37:28.953Z,14.73
2018-11-12T13:38:29.218Z,14.72
2018-11-12T13:39:29.702Z,14.72
2018-11-12T13:40:29.295Z,14.7
2018-11-12T13:41:29.290Z,14.68
2018-11-12T13:42:29.319Z,14.62
2018-11-12T13:43:29.118Z,14.7
2018-11-12T13:44:29.384Z,14.58
2018-11-12T13:45:29.393Z,14.65
2018-11-12T13:46:44.238Z,14.64
2018-11-12T13:47:29.168Z,14.58
2018-11-12T13:48:29.464Z,14.54
2018-11-12T13:50:29.480Z,14.6
2018-11-12T13:51:29.519Z,14.62